createdAt,value
2023-05-10T00:00:49.021Z,898.00
2023-05-10T00:01:49.015Z,879.00
2023-05-10T00:02:49.075Z,857.00
2023-05-10T00:03:49.094Z,885.00
2023-05-10T00:04:48.987Z,894.00
2023-05-10T00:05:49.019Z,851.00
2023-05-10T00:06:48.975Z,897.00
2023-05-10T00:07:48.967Z,900.00
2023-05-10T00:08:48.964Z,874.00
2023-05-10T00:09:48.944Z,847.00
2023-05-10T00:10:48.957Z,860.00
2023-05-10T00:11:48.941Z,871.00
2023-05-10T00:12:48.997Z,865.00
2023-05-10T00:13:48.940Z,848.00
2023-05-10T00:14:48.947Z,855.00
2023-05-10T00:15:48.939Z,864.00
2023-05-10T00:16:48.990Z,864.00
2023-05-10T00:17:48.964Z,896.00
2023-05-10T00:18:48.928Z,889.00
2023-05-10T00:19:48.919Z,891.00
2023-05-10T00:20:48.909Z,892.00
2023-05-10T00:21:48.911Z,895.00
2023-05-10T00:22:48.923Z,899.00
2023-05-10T00:23:48.893Z,908.00
2023-05-10T00:24:48.897Z,923.00
2023-05-10T00:25:48.893Z,900.00
2023-05-10T00:26:48.901Z,902.00
2023-05-10T00:27:48.872Z,903.00
2023-05-10T00:28:48.878Z,907.00
2023-05-10T00:29:48.840Z,874.00
2023-05-10T00:30:48.839Z,873.00
2023-05-10T00:31:48.901Z,882.00
2023-05-10T00:32:48.843Z,878.00
2023-05-10T00:33:48.816Z,857.00
2023-05-10T00:34:48.817Z,875.00
2023-05-10T00:35:48.811Z,868.00
2023-05-10T00:36:48.812Z,857.00
2023-05-10T00:37:48.790Z,874.00
2023-05-10T00:38:48.801Z,847.00
2023-05-10T00:39:48.765Z,851.00
2023-05-10T00:40:48.795Z,852.00
2023-05-10T00:41:48.759Z,845.00
2023-05-10T00:42:48.757Z,859.00
2023-05-10T00:43:48.764Z,882.00
2023-05-10T00:44:48.735Z,897.00
2023-05-10T00:45:48.786Z,874.00
2023-05-10T00:46:48.787Z,879.00
2023-05-10T00:47:48.817Z,884.00
2023-05-10T00:48:48.793Z,872.00
2023-05-10T00:49:48.796Z,888.00
2023-05-10T00:50:48.812Z,874.00
2023-05-10T00:51:48.850Z,861.00
2023-05-10T00:52:48.887Z,879.00
2023-05-10T00:53:48.903Z,865.00
2023-05-10T00:54:48.919Z,857.00
2023-05-10T00:55:48.913Z,848.00
2023-05-10T00:56:48.949Z,819.00
2023-05-10T00:57:48.953Z,823.00
2023-05-10T00:58:48.962Z,825.00
2023-05-10T00:59:48.964Z,831.00
2023-05-10T01:00:48.968Z,843.00
2023-05-10T01:01:49.005Z,850.00
2023-05-10T01:02:49.052Z,836.00
2023-05-10T01:03:48.945Z,869.00
2023-05-10T01:04:48.967Z,842.00
2023-05-10T01:05:48.946Z,838.00
2023-05-10T01:06:48.937Z,834.00
2023-05-10T01:07:48.938Z,838.00
2023-05-10T01:08:48.925Z,846.00
2023-05-10T01:09:48.917Z,857.00
2023-05-10T01:10:48.920Z,849.00
2023-05-10T01:11:48.894Z,860.00
2023-05-10T01:12:48.930Z,879.00
2023-05-10T01:13:48.911Z,858.00
2023-05-10T01:14:48.909Z,873.00
2023-05-10T01:15:48.905Z,844.00
2023-05-10T01:16:48.874Z,838.00
2023-05-10T01:17:48.912Z,836.00
2023-05-10T01:18:48.861Z,819.00
2023-05-10T01:19:48.852Z,825.00
2023-05-10T01:20:48.854Z,805.00
2023-05-10T01:21:48.851Z,828.00
2023-05-10T01:22:48.859Z,825.00
2023-05-10T01:23:48.889Z,824.00
2023-05-10T01:24:48.902Z,820.00
2023-05-10T01:25:48.932Z,851.00
2023-05-10T01:26:48.937Z,842.00
2023-05-10T01:27:48.974Z,867.00
2023-05-10T01:28:48.982Z,854.00
2023-05-10T01:29:53.457Z,832.00
2023-05-10T01:30:49.996Z,834.00
2023-05-10T01:31:49.021Z,838.00
2023-05-10T01:32:49.108Z,845.00
2023-05-10T01:33:49.003Z,839.00
2023-05-10T01:34:48.969Z,847.00
2023-05-10T01:35:48.957Z,873.00
2023-05-10T01:36:48.948Z,855.00
2023-05-10T01:37:48.959Z,882.00
2023-05-10T01:38:48.965Z,852.00
2023-05-10T01:39:48.951Z,825.00
2023-05-10T01:40:48.951Z,836.00
2023-05-10T01:41:48.983Z,828.00
2023-05-10T01:42:48.922Z,830.00
2023-05-10T01:43:48.957Z,842.00
2023-05-10T01:44:48.986Z,857.00
2023-05-10T01:45:48.927Z,844.00
2023-05-10T01:46:48.941Z,845.00
2023-05-10T01:47:49.876Z,859.00
2023-05-10T01:48:48.904Z,854.00
2023-05-10T01:49:48.902Z,865.00
2023-05-10T01:50:48.899Z,851.00
2023-05-10T01:51:48.908Z,840.00
2023-05-10T01:52:48.912Z,835.00
2023-05-10T01:53:48.947Z,835.00
2023-05-10T01:54:48.929Z,835.00
2023-05-10T01:55:48.915Z,835.00
2023-05-10T01:56:48.925Z,835.00
2023-05-10T01:57:48.913Z,836.00
2023-05-10T01:58:48.914Z,842.00
2023-05-10T01:59:48.917Z,845.00
2023-05-10T02:00:48.962Z,855.00
2023-05-10T02:01:48.937Z,855.00
2023-05-10T02:02:48.958Z,854.00
2023-05-10T02:03:48.995Z,871.00
2023-05-10T02:04:48.926Z,858.00
2023-05-10T02:05:48.930Z,848.00
2023-05-10T02:06:48.929Z,848.00
2023-05-10T02:07:48.941Z,879.00
2023-05-10T02:08:48.940Z,866.00
2023-05-10T02:09:48.966Z,869.00
2023-05-10T02:10:48.944Z,859.00
2023-05-10T02:11:48.944Z,874.00
2023-05-10T02:12:48.966Z,869.00
2023-05-10T02:13:48.943Z,843.00
2023-05-10T02:14:48.941Z,814.00
2023-05-10T02:15:48.942Z,847.00
2023-05-10T02:16:49.056Z,856.00
2023-05-10T02:17:48.956Z,815.00
2023-05-10T02:18:48.945Z,843.00
2023-05-10T02:19:48.952Z,858.00
2023-05-10T02:20:48.943Z,840.00
2023-05-10T02:21:48.963Z,848.00
2023-05-10T02:22:48.995Z,845.00
2023-05-10T02:23:49.028Z,851.00
2023-05-10T02:24:49.035Z,863.00
2023-05-10T02:25:49.072Z,835.00
2023-05-10T02:26:49.109Z,859.00
2023-05-10T02:27:49.134Z,872.00
2023-05-10T02:28:49.170Z,869.00
2023-05-10T02:29:49.213Z,882.00
2023-05-10T02:30:49.253Z,859.00
2023-05-10T02:31:49.290Z,844.00
2023-05-10T02:32:49.351Z,858.00
2023-05-10T02:33:49.320Z,891.00
2023-05-10T02:34:49.355Z,870.00
2023-05-10T02:35:49.386Z,865.00
2023-05-10T02:36:49.423Z,878.00
2023-05-10T02:37:49.433Z,879.00
2023-05-10T02:38:49.430Z,878.00
2023-05-10T02:39:49.420Z,882.00
2023-05-10T02:40:49.424Z,881.00
2023-05-10T02:41:49.432Z,903.00
2023-05-10T02:42:49.424Z,877.00
2023-05-10T02:43:49.450Z,860.00
2023-05-10T02:44:49.453Z,878.00
2023-05-10T02:45:49.511Z,860.00
2023-05-10T02:46:49.439Z,842.00
2023-05-10T02:47:49.471Z,855.00
2023-05-10T02:48:49.449Z,848.00
2023-05-10T02:49:49.439Z,848.00
2023-05-10T02:50:49.448Z,844.00
2023-05-10T02:51:49.464Z,844.00
2023-05-10T02:52:49.447Z,845.00
2023-05-10T02:53:49.458Z,848.00
2023-05-10T02:54:49.453Z,856.00
2023-05-10T02:55:49.453Z,865.00
2023-05-10T02:56:49.454Z,864.00
2023-05-10T02:57:49.465Z,872.00
2023-05-10T02:58:49.467Z,846.00
2023-05-10T02:59:49.478Z,870.00
2023-05-10T03:00:49.468Z,875.00
2023-05-10T03:01:49.564Z,853.00
2023-05-10T03:02:49.508Z,879.00
2023-05-10T03:03:49.486Z,856.00
2023-05-10T03:04:49.562Z,869.00
2023-05-10T03:05:49.484Z,870.00
2023-05-10T03:06:49.504Z,864.00
2023-05-10T03:07:49.507Z,878.00
2023-05-10T03:08:49.505Z,860.00
2023-05-10T03:09:49.501Z,874.00
2023-05-10T03:10:49.511Z,856.00
2023-05-10T03:11:49.523Z,843.00
2023-05-10T03:12:49.576Z,867.00
2023-05-10T03:13:49.542Z,858.00
2023-05-10T03:14:49.523Z,849.00
2023-05-10T03:15:49.576Z,878.00
2023-05-10T03:16:49.589Z,872.00
2023-05-10T03:17:49.688Z,866.00
2023-05-10T03:18:49.652Z,877.00
2023-05-10T03:19:49.686Z,847.00
2023-05-10T03:20:49.742Z,868.00
2023-05-10T03:21:49.743Z,876.00
2023-05-10T03:22:49.773Z,858.00
2023-05-10T03:23:49.839Z,839.00
2023-05-10T03:24:49.838Z,813.00
2023-05-10T03:25:49.871Z,841.00
2023-05-10T03:26:49.934Z,848.00
2023-05-10T03:27:49.948Z,854.00
2023-05-10T03:28:49.983Z,860.00
2023-05-10T03:29:50.017Z,857.00
2023-05-10T03:30:50.050Z,850.00
2023-05-10T03:31:50.113Z,869.00
2023-05-10T03:32:50.196Z,849.00
2023-05-10T03:33:50.177Z,854.00
2023-05-10T03:34:50.197Z,857.00
2023-05-10T03:35:50.229Z,866.00
2023-05-10T03:36:50.249Z,872.00
2023-05-10T03:37:50.299Z,863.00
2023-05-10T03:38:50.339Z,873.00
2023-05-10T03:39:50.354Z,858.00
2023-05-10T03:40:50.390Z,838.00
2023-05-10T03:41:50.422Z,845.00
2023-05-10T03:42:50.443Z,846.00
2023-05-10T03:43:50.450Z,851.00
2023-05-10T03:44:50.485Z,854.00
2023-05-10T03:45:50.460Z,867.00
2023-05-10T03:46:50.486Z,870.00
2023-05-10T03:47:50.498Z,849.00
2023-05-10T03:48:50.467Z,872.00
2023-05-10T03:49:50.462Z,861.00
2023-05-10T03:50:50.467Z,838.00
2023-05-10T03:51:50.457Z,859.00
2023-05-10T03:52:51.008Z,823.00
2023-05-10T03:53:50.475Z,857.00
2023-05-10T03:54:50.519Z,849.00
2023-05-10T03:55:50.471Z,832.00
2023-05-10T03:56:50.475Z,843.00
2023-05-10T03:57:50.542Z,845.00
2023-05-10T03:58:50.483Z,820.00
2023-05-10T03:59:50.495Z,851.00
2023-05-10T04:00:50.495Z,850.00
2023-05-10T04:01:50.662Z,837.00
2023-05-10T04:02:50.596Z,856.00
2023-05-10T04:03:50.717Z,855.00
2023-05-10T04:04:50.634Z,835.00
2023-05-10T04:05:50.725Z,856.00
2023-05-10T04:06:50.751Z,867.00
2023-05-10T04:07:50.762Z,862.00
2023-05-10T04:08:50.797Z,869.00
2023-05-10T04:09:50.842Z,860.00
2023-05-10T04:10:50.876Z,868.00
2023-05-10T04:11:50.917Z,861.00
2023-05-10T04:12:50.965Z,864.00
2023-05-10T04:13:51.005Z,854.00
2023-05-10T04:14:51.027Z,855.00
2023-05-10T04:15:51.103Z,867.00
2023-05-10T04:16:51.279Z,856.00
2023-05-10T04:17:51.174Z,838.00
2023-05-10T04:18:51.196Z,859.00
2023-05-10T04:19:51.264Z,861.00
2023-05-10T04:20:51.274Z,874.00
2023-05-10T04:21:51.298Z,870.00
2023-05-10T04:22:51.369Z,839.00
2023-05-10T04:23:51.389Z,848.00
2023-05-10T04:24:51.404Z,881.00
2023-05-10T04:25:51.448Z,857.00
2023-05-10T04:26:51.486Z,857.00
2023-05-10T04:27:51.519Z,846.00
2023-05-10T04:28:51.591Z,849.00
2023-05-10T04:29:51.588Z,867.00
2023-05-10T04:30:51.594Z,868.00
2023-05-10T04:31:51.590Z,867.00
2023-05-10T04:32:51.616Z,868.00
2023-05-10T04:33:51.611Z,869.00
2023-05-10T04:34:51.623Z,869.00
2023-05-10T04:35:51.626Z,869.00
2023-05-10T04:36:51.607Z,873.00
2023-05-10T04:37:51.614Z,881.00
2023-05-10T04:38:51.608Z,877.00
2023-05-10T04:39:51.611Z,875.00
2023-05-10T04:40:51.606Z,872.00
2023-05-10T04:41:51.611Z,869.00
2023-05-10T04:42:51.612Z,879.00
2023-05-10T04:43:51.618Z,877.00
2023-05-10T04:44:51.623Z,867.00
2023-05-10T04:45:51.724Z,878.00
2023-05-10T04:46:51.618Z,879.00
2023-05-10T04:47:51.650Z,881.00
2023-05-10T04:48:51.625Z,874.00
2023-05-10T04:49:51.617Z,886.00
2023-05-10T04:50:51.620Z,890.00
2023-05-10T04:51:51.615Z,862.00
2023-05-10T04:52:52.703Z,864.00
2023-05-10T04:54:04.669Z,864.00
2023-05-10T04:54:52.612Z,864.00
2023-05-10T04:55:51.599Z,868.00
2023-05-10T04:56:51.599Z,868.00
2023-05-10T04:57:51.598Z,881.00
2023-05-10T04:58:51.611Z,880.00
2023-05-10T04:59:51.635Z,876.00
2023-05-10T05:00:51.605Z,876.00
2023-05-10T05:01:51.647Z,882.00
2023-05-10T05:02:51.659Z,881.00
2023-05-10T05:03:51.673Z,881.00
2023-05-10T05:04:51.588Z,882.00
2023-05-10T05:05:51.628Z,883.00
2023-05-10T05:06:53.761Z,882.00
2023-05-10T05:07:51.587Z,887.00
2023-05-10T05:08:51.635Z,892.00
2023-05-10T05:09:51.653Z,871.00
2023-05-10T05:10:51.688Z,875.00
2023-05-10T05:11:51.737Z,870.00
2023-05-10T05:12:51.806Z,884.00
2023-05-10T05:13:51.833Z,871.00
2023-05-10T05:14:51.862Z,877.00
2023-05-10T05:15:51.916Z,854.00
2023-05-10T05:16:51.950Z,861.00
2023-05-10T05:17:52.016Z,871.00
2023-05-10T05:18:52.031Z,869.00
2023-05-10T05:19:52.078Z,870.00
2023-05-10T05:20:52.119Z,872.00
2023-05-10T05:21:52.153Z,867.00
2023-05-10T05:22:52.196Z,850.00
2023-05-10T05:23:52.244Z,858.00
2023-05-10T05:24:52.277Z,870.00
2023-05-10T05:25:52.327Z,864.00
2023-05-10T05:26:52.392Z,868.00
2023-05-10T05:27:52.420Z,862.00
2023-05-10T05:28:52.519Z,870.00
2023-05-10T05:29:52.775Z,868.00
2023-05-10T05:30:52.586Z,873.00
2023-05-10T05:31:54.806Z,899.00
2023-05-10T05:32:52.725Z,906.00
2023-05-10T05:33:52.683Z,949.00
2023-05-10T05:34:52.638Z,946.00
2023-05-10T05:35:52.670Z,962.00
2023-05-10T05:36:52.639Z,950.00
2023-05-10T05:37:52.628Z,983.00
2023-05-10T05:38:52.663Z,1054.00
2023-05-10T05:39:52.652Z,1057.00
2023-05-10T05:40:52.673Z,1068.00
2023-05-10T05:41:52.644Z,1099.00
2023-05-10T05:42:52.679Z,1155.00
2023-05-10T05:43:52.651Z,1254.00
2023-05-10T05:44:52.656Z,1286.00
2023-05-10T05:45:52.666Z,1287.00
2023-05-10T05:46:52.839Z,1403.00
2023-05-10T05:47:52.705Z,1473.00
2023-05-10T05:48:52.656Z,1517.00
2023-05-10T05:49:52.621Z,1584.00
2023-05-10T05:50:52.616Z,1647.00
2023-05-10T05:51:52.636Z,1709.00
2023-05-10T05:52:52.622Z,1752.00
2023-05-10T05:53:52.592Z,1799.00
2023-05-10T05:54:52.598Z,1843.00
2023-05-10T05:55:52.594Z,1899.00
2023-05-10T05:56:52.767Z,1952.00
2023-05-10T05:57:52.617Z,2009.00
2023-05-10T05:58:52.689Z,2054.00
2023-05-10T05:59:52.616Z,2076.00
2023-05-10T06:00:52.623Z,2110.00
2023-05-10T06:01:52.597Z,2167.00
2023-05-10T06:02:52.605Z,2200.00
2023-05-10T06:03:53.417Z,2237.00
2023-05-10T06:04:52.595Z,2239.00
2023-05-10T06:05:52.544Z,2249.00
2023-05-10T06:06:52.550Z,2269.00
2023-05-10T06:07:52.572Z,2312.00
2023-05-10T06:08:52.549Z,2363.00
2023-05-10T06:09:52.595Z,2375.00
2023-05-10T06:10:52.522Z,2409.00
2023-05-10T06:11:52.538Z,2418.00
2023-05-10T06:12:52.642Z,2421.00
2023-05-10T06:13:52.516Z,2425.00
2023-05-10T06:14:52.522Z,2442.00
2023-05-10T06:15:52.520Z,2465.00
2023-05-10T06:16:52.674Z,2507.00
2023-05-10T06:17:52.571Z,2521.00
2023-05-10T06:18:52.498Z,2543.00
2023-05-10T06:19:52.506Z,2546.00
2023-05-10T06:20:52.478Z,2548.00
2023-05-10T06:21:53.810Z,2565.00
2023-05-10T06:22:52.483Z,2551.00
2023-05-10T06:23:52.448Z,2565.00
2023-05-10T06:24:52.439Z,2571.00
2023-05-10T06:25:52.447Z,2572.00
2023-05-10T06:26:52.441Z,2571.00
2023-05-10T06:27:53.905Z,2574.00
2023-05-10T06:28:52.488Z,2572.00
2023-05-10T06:30:02.095Z,2576.00
2023-05-10T06:30:53.422Z,2573.00
2023-05-10T06:31:52.605Z,2577.00
2023-05-10T06:32:52.449Z,2584.00
2023-05-10T06:33:54.164Z,2594.00
2023-05-10T06:34:52.404Z,2627.00
2023-05-10T06:35:52.354Z,2598.00
2023-05-10T06:36:52.353Z,2589.00
2023-05-10T06:37:52.328Z,2575.00
2023-05-10T06:38:52.327Z,2611.00
2023-05-10T06:39:52.298Z,2616.00
2023-05-10T06:40:52.294Z,2606.00
2023-05-10T06:41:52.302Z,2664.00
2023-05-10T06:42:52.272Z,2720.00
2023-05-10T06:43:52.261Z,2731.00
2023-05-10T06:44:52.237Z,2702.00
2023-05-10T06:45:52.309Z,2604.00
2023-05-10T06:46:52.290Z,2513.00
2023-05-10T06:47:52.241Z,2554.00
2023-05-10T06:48:52.184Z,2583.00
2023-05-10T06:49:52.228Z,2511.00
2023-05-10T06:50:52.223Z,2423.00
2023-05-10T06:51:52.185Z,2338.00
2023-05-10T06:52:53.157Z,2251.00
2023-05-10T06:53:52.137Z,2203.00
2023-05-10T06:54:52.153Z,2156.00
2023-05-10T06:55:52.109Z,2071.00
2023-05-10T06:56:52.180Z,2023.00
2023-05-10T06:57:52.092Z,1972.00
2023-05-10T06:58:53.065Z,1948.00
2023-05-10T06:59:52.095Z,1920.00
2023-05-10T07:00:52.092Z,1857.00
2023-05-10T07:01:52.098Z,1845.00
2023-05-10T07:02:52.162Z,1825.00
2023-05-10T07:03:52.039Z,1783.00
2023-05-10T07:04:52.035Z,1791.00
2023-05-10T07:05:51.999Z,1804.00
2023-05-10T07:06:52.010Z,1794.00
2023-05-10T07:07:52.057Z,1760.00
2023-05-10T07:08:51.963Z,1747.00
2023-05-10T07:09:51.965Z,1737.00
2023-05-10T07:10:51.940Z,1726.00
2023-05-10T07:11:51.939Z,1699.00
2023-05-10T07:12:52.040Z,1686.00
2023-05-10T07:13:52.255Z,1686.00
2023-05-10T07:14:51.903Z,1686.00
2023-05-10T07:15:51.910Z,1656.00
2023-05-10T07:16:51.880Z,1659.00
2023-05-10T07:17:51.925Z,1636.00
2023-05-10T07:18:51.875Z,1630.00
2023-05-10T07:19:51.889Z,1591.00
2023-05-10T07:20:51.863Z,1596.00
2023-05-10T07:21:51.865Z,1600.00
2023-05-10T07:22:51.787Z,1610.00
2023-05-10T07:23:51.846Z,1613.00
2023-05-10T07:24:51.828Z,1620.00
2023-05-10T07:25:51.796Z,1622.00
2023-05-10T07:26:51.846Z,1629.00
2023-05-10T07:27:51.785Z,1607.00
2023-05-10T07:28:51.810Z,1615.00
2023-05-10T07:29:51.827Z,1631.00
2023-05-10T07:30:51.838Z,1616.00
2023-05-10T07:31:51.838Z,1591.00
2023-05-10T07:32:51.785Z,1595.00
2023-05-10T07:33:51.800Z,1586.00
2023-05-10T07:34:51.770Z,1590.00
2023-05-10T07:35:51.747Z,1603.00
2023-05-10T07:36:51.748Z,1661.00
2023-05-10T07:37:51.739Z,1663.00
2023-05-10T07:38:51.798Z,1673.00
2023-05-10T07:39:51.737Z,1690.00
2023-05-10T07:40:51.715Z,1695.00
2023-05-10T07:41:51.700Z,1711.00
2023-05-10T07:42:51.663Z,1714.00
2023-05-10T07:43:52.603Z,1733.00
2023-05-10T07:44:51.623Z,1762.00
2023-05-10T07:45:52.283Z,1755.00
2023-05-10T07:46:51.780Z,1775.00
2023-05-10T07:47:51.747Z,1777.00
2023-05-10T07:48:51.683Z,1806.00
2023-05-10T07:49:51.757Z,1824.00
2023-05-10T07:50:51.787Z,1828.00
2023-05-10T07:51:51.851Z,1860.00
2023-05-10T07:52:52.536Z,1884.00
2023-05-10T07:53:52.506Z,1914.00
2023-05-10T07:54:51.971Z,1932.00
2023-05-10T07:55:52.051Z,1943.00
2023-05-10T07:56:52.075Z,1982.00
2023-05-10T07:57:52.091Z,2012.00
2023-05-10T07:58:52.132Z,2037.00
2023-05-10T07:59:52.192Z,2023.00
2023-05-10T08:00:52.198Z,2045.00
2023-05-10T08:01:52.249Z,2065.00
2023-05-10T08:02:52.417Z,2053.00
2023-05-10T08:03:52.512Z,2081.00
2023-05-10T08:04:52.435Z,2072.00
2023-05-10T08:05:52.393Z,2078.00
2023-05-10T08:06:52.498Z,2078.00
2023-05-10T08:07:52.494Z,2103.00
2023-05-10T08:08:52.512Z,2116.00
2023-05-10T08:09:52.545Z,2112.00
2023-05-10T08:10:52.580Z,2115.00
2023-05-10T08:11:52.627Z,2112.00
2023-05-10T08:12:52.610Z,2140.00
2023-05-10T08:13:52.648Z,2154.00
2023-05-10T08:14:52.736Z,2191.00
2023-05-10T08:15:52.733Z,2206.00
2023-05-10T08:16:52.681Z,2208.00
2023-05-10T08:17:52.662Z,2212.00
2023-05-10T08:18:52.685Z,2223.00
2023-05-10T08:19:52.743Z,2232.00
2023-05-10T08:20:52.586Z,2209.00
2023-05-10T08:21:52.604Z,2216.00
2023-05-10T08:22:52.565Z,2224.00
2023-05-10T08:23:52.576Z,2210.00
2023-05-10T08:24:52.601Z,2221.00
2023-05-10T08:25:52.475Z,2228.00
2023-05-10T08:26:52.464Z,2252.00
2023-05-10T08:27:52.425Z,2296.00
2023-05-10T08:28:52.415Z,2293.00
2023-05-10T08:29:52.363Z,2309.00
2023-05-10T08:30:52.374Z,2329.00
2023-05-10T08:31:52.369Z,2364.00
2023-05-10T08:32:52.333Z,2332.00
2023-05-10T08:33:52.284Z,2275.00
2023-05-10T08:34:52.278Z,2224.00
2023-05-10T08:35:52.269Z,2191.00
2023-05-10T08:36:52.304Z,2114.00
2023-05-10T08:37:52.304Z,2116.00
2023-05-10T08:38:52.390Z,2057.00
2023-05-10T08:39:52.434Z,1995.00
2023-05-10T08:40:52.416Z,1931.00
2023-05-10T08:41:52.448Z,1861.00
2023-05-10T08:42:52.524Z,1820.00
2023-05-10T08:43:52.639Z,1720.00
2023-05-10T08:44:52.676Z,1722.00
2023-05-10T08:45:52.650Z,1708.00
2023-05-10T08:46:52.742Z,1778.00
2023-05-10T08:47:52.762Z,1771.00
2023-05-10T08:48:52.834Z,1741.00
2023-05-10T08:49:52.846Z,1721.00
2023-05-10T08:50:52.882Z,1699.00
2023-05-10T08:51:52.946Z,1671.00
2023-05-10T08:52:52.903Z,1665.00
2023-05-10T08:53:52.898Z,1598.00
2023-05-10T08:54:52.871Z,1574.00
2023-05-10T08:55:52.845Z,1568.00
2023-05-10T08:56:52.848Z,1535.00
2023-05-10T08:57:52.838Z,1519.00
2023-05-10T08:58:52.801Z,1478.00
2023-05-10T08:59:52.794Z,1444.00
2023-05-10T09:00:52.883Z,1444.00
2023-05-10T09:01:52.767Z,1394.00
2023-05-10T09:02:52.792Z,1390.00
2023-05-10T09:03:52.848Z,1372.00
2023-05-10T09:04:52.808Z,1343.00
2023-05-10T09:05:52.712Z,1336.00
2023-05-10T09:06:52.686Z,1340.00
2023-05-10T09:07:52.677Z,1335.00
2023-05-10T09:08:52.649Z,1312.00
2023-05-10T09:09:52.635Z,1293.00
2023-05-10T09:10:52.657Z,1305.00
2023-05-10T09:11:52.615Z,1275.00
2023-05-10T09:12:52.613Z,1259.00
2023-05-10T09:13:52.584Z,1260.00
2023-05-10T09:14:52.579Z,1238.00
2023-05-10T09:15:52.611Z,1221.00
2023-05-10T09:16:52.709Z,1249.00
2023-05-10T09:17:52.835Z,1241.00
2023-05-10T09:18:52.854Z,1220.00
2023-05-10T09:19:52.798Z,1205.00
2023-05-10T09:20:52.840Z,1176.00
2023-05-10T09:21:52.897Z,1175.00
2023-05-10T09:22:52.932Z,1184.00
2023-05-10T09:23:52.970Z,1164.00
2023-05-10T09:24:52.976Z,1127.00
2023-05-10T09:25:53.046Z,1130.00
2023-05-10T09:26:53.117Z,1112.00
2023-05-10T09:27:53.144Z,1117.00
2023-05-10T09:28:53.298Z,1089.00
2023-05-10T09:29:53.198Z,1076.00
2023-05-10T09:30:53.313Z,1078.00
2023-05-10T09:31:53.254Z,1086.00
2023-05-10T09:32:53.352Z,1078.00
2023-05-10T09:33:53.356Z,1081.00
2023-05-10T09:34:53.394Z,983.00
2023-05-10T09:35:53.511Z,976.00
2023-05-10T09:36:53.471Z,999.00
2023-05-10T09:37:53.471Z,952.00
2023-05-10T09:38:53.595Z,939.00
2023-05-10T09:39:53.542Z,959.00
2023-05-10T09:40:53.590Z,1084.00
2023-05-10T09:41:53.621Z,1205.00
2023-05-10T09:42:53.590Z,1209.00
2023-05-10T09:43:53.553Z,1229.00
2023-05-10T09:44:53.620Z,1214.00
2023-05-10T09:45:53.596Z,1250.00
2023-05-10T09:46:53.532Z,1312.00
2023-05-10T09:47:53.666Z,1445.00
2023-05-10T09:48:53.489Z,1633.00
2023-05-10T09:49:53.477Z,1677.00
2023-05-10T09:50:53.561Z,1723.00
2023-05-10T09:51:53.463Z,1731.00
2023-05-10T09:52:53.489Z,1747.00
2023-05-10T09:53:53.635Z,1615.00
2023-05-10T09:54:53.595Z,1571.00
2023-05-10T09:55:53.785Z,1654.00
2023-05-10T09:56:53.727Z,1658.00
2023-05-10T09:57:53.754Z,1762.00
2023-05-10T09:58:53.853Z,1811.00
2023-05-10T09:59:53.785Z,1834.00
2023-05-10T10:00:53.856Z,1865.00
2023-05-10T10:01:53.942Z,1820.00
2023-05-10T10:02:53.931Z,1793.00
2023-05-10T10:03:53.961Z,1767.00
2023-05-10T10:04:54.054Z,1842.00
2023-05-10T10:05:54.073Z,1880.00
2023-05-10T10:06:54.039Z,1882.00
2023-05-10T10:07:54.586Z,1894.00
2023-05-10T10:08:55.649Z,1913.00
2023-05-10T10:09:53.979Z,1980.00
2023-05-10T10:10:53.976Z,2058.00
2023-05-10T10:11:53.948Z,2051.00
2023-05-10T10:12:53.912Z,2081.00
2023-05-10T10:13:53.912Z,2127.00
2023-05-10T10:14:53.877Z,2111.00
2023-05-10T10:15:54.194Z,2138.00
2023-05-10T10:17:06.838Z,2163.00
2023-05-10T10:17:54.871Z,2164.00
2023-05-10T10:18:53.897Z,2163.00
2023-05-10T10:19:53.827Z,2155.00
2023-05-10T10:20:53.768Z,2144.00
2023-05-10T10:21:53.754Z,2041.00
2023-05-10T10:22:53.720Z,2001.00
2023-05-10T10:23:53.719Z,2081.00
2023-05-10T10:24:53.695Z,2124.00
2023-05-10T10:25:53.693Z,2134.00
2023-05-10T10:26:53.700Z,2134.00
2023-05-10T10:27:53.742Z,2126.00
2023-05-10T10:28:53.803Z,2120.00
2023-05-10T10:29:53.805Z,2126.00
2023-05-10T10:30:53.878Z,2118.00
2023-05-10T10:31:54.014Z,2127.00
2023-05-10T10:32:53.966Z,2154.00
2023-05-10T10:33:53.993Z,2143.00
2023-05-10T10:34:54.021Z,2099.00
2023-05-10T10:35:54.050Z,1949.00
2023-05-10T10:36:54.124Z,1844.00
2023-05-10T10:37:54.361Z,1861.00
2023-05-10T10:38:54.507Z,1796.00
2023-05-10T10:39:54.316Z,1883.00
2023-05-10T10:40:54.298Z,1944.00
2023-05-10T10:41:54.348Z,1972.00
2023-05-10T10:42:54.372Z,1956.00
2023-05-10T10:43:54.373Z,1944.00
2023-05-10T10:44:54.419Z,1932.00
2023-05-10T10:45:54.483Z,1841.00
2023-05-10T10:46:54.534Z,1783.00
2023-05-10T10:47:54.620Z,1701.00
2023-05-10T10:48:54.604Z,1653.00
2023-05-10T10:49:54.658Z,1621.00
2023-05-10T10:50:54.732Z,1536.00
2023-05-10T10:51:54.757Z,1475.00
2023-05-10T10:52:54.982Z,1423.00
2023-05-10T10:53:54.838Z,1373.00
2023-05-10T10:54:54.911Z,1352.00
2023-05-10T10:55:54.975Z,1287.00
2023-05-10T10:56:54.974Z,1252.00
2023-05-10T10:57:55.046Z,1224.00
2023-05-10T10:58:55.076Z,1192.00
2023-05-10T10:59:55.125Z,1109.00
2023-05-10T11:00:55.198Z,1076.00
2023-05-10T11:01:55.193Z,1032.00
2023-05-10T11:02:55.227Z,976.00
2023-05-10T11:03:55.236Z,1022.00
2023-05-10T11:04:55.196Z,1036.00
2023-05-10T11:05:55.227Z,1010.00
2023-05-10T11:06:55.226Z,1011.00
2023-05-10T11:07:55.233Z,1007.00
2023-05-10T11:08:55.371Z,1045.00
2023-05-10T11:09:55.233Z,1046.00
2023-05-10T11:10:55.390Z,1097.00
2023-05-10T11:11:55.209Z,1228.00
2023-05-10T11:12:55.186Z,1403.00
2023-05-10T11:13:55.177Z,1590.00
2023-05-10T11:14:55.147Z,1626.00
2023-05-10T11:15:55.144Z,1625.00
2023-05-10T11:16:55.148Z,1631.00
2023-05-10T11:17:55.102Z,1629.00
2023-05-10T11:18:55.163Z,1613.00
2023-05-10T11:19:55.048Z,1582.00
2023-05-10T11:20:55.087Z,1518.00
2023-05-10T11:21:55.115Z,1520.00
2023-05-10T11:22:55.119Z,1541.00
2023-05-10T11:23:56.028Z,1578.00
2023-05-10T11:24:55.212Z,1622.00
2023-05-10T11:25:55.354Z,1600.00
2023-05-10T11:26:55.372Z,1651.00
2023-05-10T11:27:55.316Z,1655.00
2023-05-10T11:28:55.349Z,1638.00
2023-05-10T11:29:55.403Z,1674.00
2023-05-10T11:30:55.432Z,1671.00
2023-05-10T11:31:55.497Z,1681.00
2023-05-10T11:32:55.537Z,1686.00
2023-05-10T11:33:55.521Z,1687.00
2023-05-10T11:34:55.523Z,1698.00
2023-05-10T11:35:55.563Z,1689.00
2023-05-10T11:36:55.555Z,1691.00
2023-05-10T11:37:55.609Z,1682.00
2023-05-10T11:38:55.610Z,1644.00
2023-05-10T11:39:55.756Z,1649.00
2023-05-10T11:40:55.680Z,1646.00
2023-05-10T11:41:55.634Z,1647.00
2023-05-10T11:42:55.640Z,1649.00
2023-05-10T11:43:55.625Z,1649.00
2023-05-10T11:44:55.609Z,1640.00
2023-05-10T11:45:55.723Z,1633.00
2023-05-10T11:46:55.583Z,1602.00
2023-05-10T11:47:55.641Z,1591.00
2023-05-10T11:48:55.545Z,1581.00
2023-05-10T11:49:55.683Z,1572.00
2023-05-10T11:50:55.514Z,1546.00
2023-05-10T11:51:55.605Z,1553.00
2023-05-10T11:52:55.553Z,1547.00
2023-05-10T11:53:55.605Z,1530.00
2023-05-10T11:54:55.776Z,1535.00
2023-05-10T11:55:55.749Z,1510.00
2023-05-10T11:56:55.729Z,1516.00
2023-05-10T11:57:55.793Z,1526.00
2023-05-10T11:58:55.798Z,1524.00
2023-05-10T11:59:55.869Z,1513.00
2023-05-10T12:00:55.947Z,1514.00
2023-05-10T12:01:55.837Z,1514.00
2023-05-10T12:02:55.860Z,1516.00
2023-05-10T12:03:56.193Z,1495.00
2023-05-10T12:04:56.240Z,1457.00
2023-05-10T12:05:55.866Z,1466.00
2023-05-10T12:06:55.859Z,1435.00
2023-05-10T12:07:55.767Z,1470.00
2023-05-10T12:08:55.748Z,1471.00
2023-05-10T12:09:55.749Z,1473.00
2023-05-10T12:10:55.779Z,1483.00
2023-05-10T12:11:55.731Z,1481.00
2023-05-10T12:12:56.714Z,1476.00
2023-05-10T12:13:55.731Z,1459.00
2023-05-10T12:14:55.694Z,1440.00
2023-05-10T12:15:55.704Z,1453.00
2023-05-10T12:16:55.742Z,1429.00